This is the latest recevied weather packets stored in our database for station/object TG9ADI-20. If no packets are shown the sender has not sent any weather packets the latest 10 day(s).
| Time | Temp. | Humidity | Pressure | Rain* | Wind** | Luminosity | Snow |
|---|---|---|---|---|---|---|---|
| 1777724121 | 16.11° C | 97% | 1014 hPa | 0 mm | - | - | - |
| 1777723520 | 16.67° C | 97% | 1014 hPa | 0 mm | - | - | - |
| 1777722920 | 16.67° C | 10% | - | 0 mm | - | - | - |
| 1777722319 | 15° C | 98% | 1014 hPa | 0 mm | - | - | - |
| 1777721718 | 16.67° C | 10% | - | 0 mm | - | - | - |
| 1777721118 | 15.56° C | 96% | 1014 hPa | 0 mm | - | - | - |
| 1777720517 | 15.56° C | 96% | 1014 hPa | 0 mm | - | - | - |
| 1777719916 | 15.56° C | 96% | 1014 hPa | 0 mm | - | - | - |
| 1777719316 | 16.67° C | 93% | 1014 hPa | 0 mm | - | - | - |
| 1777718715 | 16.67° C | 93% | 1014 hPa | 0 mm | - | - | - |
| 1777718115 | 17.22° C | 93% | 1014 hPa | 0 mm | - | - | - |
| 1777717514 | 15° C | 96% | 1013 hPa | 0 mm | - | - | - |
| 1777716914 | 15.56° C | 96% | 1013 hPa | 0 mm | - | - | - |
| 1777716313 | 16.67° C | 93% | 1013 hPa | 0 mm | - | - | - |
| 1777715712 | 17.22° C | 93% | 1013 hPa | 0 mm | - | - | - |
| 1777715111 | 15° C | 96% | 1013 hPa | 0 mm | - | - | - |
| 1777714511 | 15.56° C | 96% | 1013 hPa | 0 mm | - | - | - |
| 1777713910 | 16.67° C | 93% | 1013 hPa | 0 mm | - | - | - |
| 1777713310 | 17.22° C | 93% | 1013 hPa | 0 mm | - | - | - |
| 1777712709 | 15° C | 98% | 1013 hPa | 0 mm | - | - | - |
| 1777712108 | 16.11° C | 10% | - | 0 mm | - | - | - |
| 1777711508 | 15.56° C | 96% | 1013 hPa | 0 mm | - | - | - |
| 1777710907 | 15.56° C | 96% | 1013 hPa | 0 mm | - | - | - |
| 1777710307 | 16.11° C | 96% | 1013 hPa | 0 mm | - | - | - |
| 1777709706 | 17.78° C | 90% | 1013 hPa | 0 mm | - | - | - |
* Rain latest hour (hover to see other rain measurements)
** Current wind speed in m/s (hover to see current wind gust speed)